sensor_id;sensor_type;location;lat;lon;timestamp;temperature;humidity
12688;DHT22;6408;59.388;17.798;2024-01-11T00:00:33;1.30;99.90
12688;DHT22;6408;59.388;17.798;2024-01-11T00:03:01;1.40;99.90
12688;DHT22;6408;59.388;17.798;2024-01-11T00:05:29;1.40;99.90
12688;DHT22;6408;59.388;17.798;2024-01-11T00:07:56;1.50;99.90
12688;DHT22;6408;59.388;17.798;2024-01-11T00:10:24;1.50;99.90
12688;DHT22;6408;59.388;17.798;2024-01-11T00:15:34;1.60;99.90
12688;DHT22;6408;59.388;17.798;2024-01-11T00:18:04;1.60;99.90
12688;DHT22;6408;59.388;17.798;2024-01-11T00:20:40;1.60;99.90
12688;DHT22;6408;59.388;17.798;2024-01-11T00:23:09;1.60;99.90
12688;DHT22;6408;59.388;17.798;2024-01-11T00:25:36;1.50;99.90
12688;DHT22;6408;59.388;17.798;2024-01-11T00:28:09;1.50;99.90
12688;DHT22;6408;59.388;17.798;2024-01-11T00:30:36;1.40;99.90
12688;DHT22;6408;59.388;17.798;2024-01-11T00:33:04;1.50;99.90
12688;DHT22;6408;59.388;17.798;2024-01-11T00:35:33;1.50;99.90
12688;DHT22;6408;59.388;17.798;2024-01-11T00:38:00;1.40;99.90
12688;DHT22;6408;59.388;17.798;2024-01-11T00:40:28;1.50;99.90
12688;DHT22;6408;59.388;17.798;2024-01-11T00:42:55;1.50;99.90
12688;DHT22;6408;59.388;17.798;2024-01-11T00:45:23;1.50;99.90
12688;DHT22;6408;59.388;17.798;2024-01-11T00:47:53;1.50;99.90
12688;DHT22;6408;59.388;17.798;2024-01-11T00:50:22;1.50;99.90
12688;DHT22;6408;59.388;17.798;2024-01-11T00:52:52;1.50;99.90
12688;DHT22;6408;59.388;17.798;2024-01-11T00:55:21;1.50;99.90
12688;DHT22;6408;59.388;17.798;2024-01-11T00:57:51;1.50;99.90
12688;DHT22;6408;59.388;17.798;2024-01-11T01:00:20;1.60;99.90
12688;DHT22;6408;59.388;17.798;2024-01-11T01:02:48;1.60;99.90
12688;DHT22;6408;59.388;17.798;2024-01-11T01:05:16;1.70;99.90
12688;DHT22;6408;59.388;17.798;2024-01-11T01:07:45;1.70;99.90
12688;DHT22;6408;59.388;17.798;2024-01-11T01:10:28;1.70;99.90
12688;DHT22;6408;59.388;17.798;2024-01-11T01:12:55;1.70;99.90
12688;DHT22;6408;59.388;17.798;2024-01-11T01:15:27;1.80;99.90
12688;DHT22;6408;59.388;17.798;2024-01-11T01:20:54;1.80;99.90
12688;DHT22;6408;59.388;17.798;2024-01-11T01:23:24;1.80;99.90
12688;DHT22;6408;59.388;17.798;2024-01-11T01:25:53;1.80;99.90
12688;DHT22;6408;59.388;17.798;2024-01-11T01:28:21;1.70;99.90
12688;DHT22;6408;59.388;17.798;2024-01-11T01:30:49;1.70;99.90
12688;DHT22;6408;59.388;17.798;2024-01-11T01:33:24;1.70;99.90
12688;DHT22;6408;59.388;17.798;2024-01-11T01:35:52;1.70;99.90
12688;DHT22;6408;59.388;17.798;2024-01-11T01:38:21;1.70;99.90
12688;DHT22;6408;59.388;17.798;2024-01-11T01:40:50;1.70;99.90
12688;DHT22;6408;59.388;17.798;2024-01-11T01:43:18;1.60;99.90
12688;DHT22;6408;59.388;17.798;2024-01-11T01:45:45;1.60;99.90
12688;DHT22;6408;59.388;17.798;2024-01-11T01:48:14;1.50;99.90
12688;DHT22;6408;59.388;17.798;2024-01-11T01:50:42;1.50;99.90
12688;DHT22;6408;59.388;17.798;2024-01-11T01:53:20;1.40;99.90
12688;DHT22;6408;59.388;17.798;2024-01-11T01:55:48;1.30;99.90
12688;DHT22;6408;59.388;17.798;2024-01-11T01:58:16;1.20;99.90
12688;DHT22;6408;59.388;17.798;2024-01-11T02:00:45;1.10;99.90
12688;DHT22;6408;59.388;17.798;2024-01-11T02:03:15;1.20;99.90
12688;DHT22;6408;59.388;17.798;2024-01-11T02:05:43;1.20;99.90
12688;DHT22;6408;59.388;17.798;2024-01-11T02:08:15;1.20;99.90
12688;DHT22;6408;59.388;17.798;2024-01-11T02:10:43;1.30;99.90
12688;DHT22;6408;59.388;17.798;2024-01-11T02:13:11;1.30;99.90
12688;DHT22;6408;59.388;17.798;2024-01-11T02:15:39;1.30;99.90
12688;DHT22;6408;59.388;17.798;2024-01-11T02:18:09;1.40;99.90
12688;DHT22;6408;59.388;17.798;2024-01-11T02:20:37;1.40;99.90
12688;DHT22;6408;59.388;17.798;2024-01-11T02:23:11;1.30;99.90
12688;DHT22;6408;59.388;17.798;2024-01-11T02:25:42;1.30;99.90
12688;DHT22;6408;59.388;17.798;2024-01-11T02:28:09;1.40;99.90
12688;DHT22;6408;59.388;17.798;2024-01-11T02:30:37;1.30;99.90
12688;DHT22;6408;59.388;17.798;2024-01-11T02:33:07;1.30;99.90
12688;DHT22;6408;59.388;17.798;2024-01-11T02:35:37;1.30;99.90
12688;DHT22;6408;59.388;17.798;2024-01-11T02:38:07;1.30;99.90
12688;DHT22;6408;59.388;17.798;2024-01-11T02:40:37;1.20;99.90
12688;DHT22;6408;59.388;17.798;2024-01-11T02:43:10;1.30;99.90
12688;DHT22;6408;59.388;17.798;2024-01-11T02:45:39;1.30;99.90
12688;DHT22;6408;59.388;17.798;2024-01-11T02:48:08;1.40;99.90
12688;DHT22;6408;59.388;17.798;2024-01-11T02:50:35;1.20;99.90
12688;DHT22;6408;59.388;17.798;2024-01-11T02:53:03;1.20;99.90
12688;DHT22;6408;59.388;17.798;2024-01-11T02:55:30;1.20;99.90
12688;DHT22;6408;59.388;17.798;2024-01-11T02:57:59;1.30;99.90
12688;DHT22;6408;59.388;17.798;2024-01-11T03:00:28;1.40;99.90
12688;DHT22;6408;59.388;17.798;2024-01-11T03:02:55;1.40;99.90
12688;DHT22;6408;59.388;17.798;2024-01-11T03:05:29;1.30;99.90
12688;DHT22;6408;59.388;17.798;2024-01-11T03:07:57;1.40;99.90
12688;DHT22;6408;59.388;17.798;2024-01-11T03:10:27;1.40;99.90
12688;DHT22;6408;59.388;17.798;2024-01-11T03:12:54;1.40;99.90
12688;DHT22;6408;59.388;17.798;2024-01-11T03:15:21;1.50;99.90
12688;DHT22;6408;59.388;17.798;2024-01-11T03:17:49;1.40;99.90
12688;DHT22;6408;59.388;17.798;2024-01-11T03:20:17;1.40;99.90
12688;DHT22;6408;59.388;17.798;2024-01-11T03:22:50;1.40;99.90
12688;DHT22;6408;59.388;17.798;2024-01-11T03:25:18;1.50;99.90
12688;DHT22;6408;59.388;17.798;2024-01-11T03:27:45;1.60;99.90
12688;DHT22;6408;59.388;17.798;2024-01-11T03:30:14;1.60;99.90
12688;DHT22;6408;59.388;17.798;2024-01-11T03:32:42;1.60;99.90
12688;DHT22;6408;59.388;17.798;2024-01-11T03:35:10;1.60;99.90
12688;DHT22;6408;59.388;17.798;2024-01-11T03:37:38;1.60;99.90
12688;DHT22;6408;59.388;17.798;2024-01-11T03:40:08;1.50;99.90
12688;DHT22;6408;59.388;17.798;2024-01-11T03:42:35;1.50;99.90
12688;DHT22;6408;59.388;17.798;2024-01-11T03:45:02;1.60;99.90
12688;DHT22;6408;59.388;17.798;2024-01-11T03:47:30;1.70;99.90
12688;DHT22;6408;59.388;17.798;2024-01-11T03:49:57;1.90;99.90
12688;DHT22;6408;59.388;17.798;2024-01-11T03:52:26;2.00;99.90
12688;DHT22;6408;59.388;17.798;2024-01-11T03:54:53;2.10;99.90
12688;DHT22;6408;59.388;17.798;2024-01-11T03:57:21;2.20;99.90
12688;DHT22;6408;59.388;17.798;2024-01-11T03:59:48;2.30;99.90
12688;DHT22;6408;59.388;17.798;2024-01-11T04:02:17;2.30;99.90
12688;DHT22;6408;59.388;17.798;2024-01-11T04:04:45;2.20;99.90
12688;DHT22;6408;59.388;17.798;2024-01-11T04:07:12;2.10;99.90
12688;DHT22;6408;59.388;17.798;2024-01-11T04:09:41;2.20;99.90
12688;DHT22;6408;59.388;17.798;2024-01-11T04:12:09;2.30;99.90
12688;DHT22;6408;59.388;17.798;2024-01-11T04:14:41;2.30;99.90
12688;DHT22;6408;59.388;17.798;2024-01-11T04:17:09;2.30;99.90
12688;DHT22;6408;59.388;17.798;2024-01-11T04:19:36;2.20;99.90
12688;DHT22;6408;59.388;17.798;2024-01-11T04:22:04;2.10;99.90
12688;DHT22;6408;59.388;17.798;2024-01-11T04:24:31;2.00;99.90
12688;DHT22;6408;59.388;17.798;2024-01-11T04:27:01;2.00;99.90
12688;DHT22;6408;59.388;17.798;2024-01-11T04:29:28;2.00;99.90
12688;DHT22;6408;59.388;17.798;2024-01-11T04:31:57;2.00;99.90
12688;DHT22;6408;59.388;17.798;2024-01-11T04:34:24;2.00;99.90
12688;DHT22;6408;59.388;17.798;2024-01-11T04:36:59;2.00;99.90
12688;DHT22;6408;59.388;17.798;2024-01-11T04:39:28;2.00;99.90
12688;DHT22;6408;59.388;17.798;2024-01-11T04:41:55;2.10;99.90
12688;DHT22;6408;59.388;17.798;2024-01-11T04:44:24;2.10;99.90
12688;DHT22;6408;59.388;17.798;2024-01-11T04:46:51;2.20;99.90
12688;DHT22;6408;59.388;17.798;2024-01-11T04:49:20;2.30;99.90
12688;DHT22;6408;59.388;17.798;2024-01-11T04:51:47;2.40;99.90
12688;DHT22;6408;59.388;17.798;2024-01-11T04:54:14;2.40;99.90
12688;DHT22;6408;59.388;17.798;2024-01-11T04:56:41;2.40;99.90
12688;DHT22;6408;59.388;17.798;2024-01-11T04:59:16;2.60;99.90
12688;DHT22;6408;59.388;17.798;2024-01-11T05:01:50;2.70;99.90
12688;DHT22;6408;59.388;17.798;2024-01-11T05:04:17;2.60;99.90
12688;DHT22;6408;59.388;17.798;2024-01-11T05:06:44;2.50;99.90
12688;DHT22;6408;59.388;17.798;2024-01-11T05:09:18;2.60;99.90
12688;DHT22;6408;59.388;17.798;2024-01-11T05:11:45;2.70;99.90
12688;DHT22;6408;59.388;17.798;2024-01-11T05:14:12;2.60;99.90
12688;DHT22;6408;59.388;17.798;2024-01-11T05:16:39;2.60;99.90
12688;DHT22;6408;59.388;17.798;2024-01-11T05:19:08;2.60;99.90
12688;DHT22;6408;59.388;17.798;2024-01-11T05:21:36;2.60;99.90
12688;DHT22;6408;59.388;17.798;2024-01-11T05:24:04;2.50;99.90
12688;DHT22;6408;59.388;17.798;2024-01-11T05:26:32;2.60;99.90
12688;DHT22;6408;59.388;17.798;2024-01-11T05:28:59;2.60;99.90
12688;DHT22;6408;59.388;17.798;2024-01-11T05:31:30;2.60;99.90
12688;DHT22;6408;59.388;17.798;2024-01-11T05:33:59;2.50;99.90
12688;DHT22;6408;59.388;17.798;2024-01-11T05:36:30;2.40;99.90
12688;DHT22;6408;59.388;17.798;2024-01-11T05:39:00;2.50;99.90
12688;DHT22;6408;59.388;17.798;2024-01-11T05:41:28;2.30;99.90
12688;DHT22;6408;59.388;17.798;2024-01-11T05:43:58;2.30;99.90
12688;DHT22;6408;59.388;17.798;2024-01-11T05:46:26;2.40;99.90
12688;DHT22;6408;59.388;17.798;2024-01-11T05:48:56;2.40;99.90
12688;DHT22;6408;59.388;17.798;2024-01-11T05:51:23;2.20;99.90
12688;DHT22;6408;59.388;17.798;2024-01-11T05:53:51;2.20;99.90
12688;DHT22;6408;59.388;17.798;2024-01-11T05:56:19;2.20;99.90
12688;DHT22;6408;59.388;17.798;2024-01-11T05:58:47;2.20;99.90
12688;DHT22;6408;59.388;17.798;2024-01-11T06:01:15;2.10;99.90
12688;DHT22;6408;59.388;17.798;2024-01-11T06:03:42;2.20;99.90
12688;DHT22;6408;59.388;17.798;2024-01-11T06:06:09;2.20;99.90
12688;DHT22;6408;59.388;17.798;2024-01-11T06:08:40;2.30;99.90
12688;DHT22;6408;59.388;17.798;2024-01-11T06:11:14;2.20;99.90
12688;DHT22;6408;59.388;17.798;2024-01-11T06:13:44;2.20;99.90
12688;DHT22;6408;59.388;17.798;2024-01-11T06:16:11;2.10;99.90
12688;DHT22;6408;59.388;17.798;2024-01-11T06:18:38;2.10;99.90
12688;DHT22;6408;59.388;17.798;2024-01-11T06:21:06;2.10;99.90
12688;DHT22;6408;59.388;17.798;2024-01-11T06:23:34;2.10;99.90
12688;DHT22;6408;59.388;17.798;2024-01-11T06:26:01;2.10;99.90
12688;DHT22;6408;59.388;17.798;2024-01-11T06:28:30;2.10;99.90
12688;DHT22;6408;59.388;17.798;2024-01-11T06:30:57;2.10;99.90
12688;DHT22;6408;59.388;17.798;2024-01-11T06:33:25;2.10;99.90
12688;DHT22;6408;59.388;17.798;2024-01-11T06:36:00;2.20;99.90
12688;DHT22;6408;59.388;17.798;2024-01-11T06:38:29;2.20;99.90
12688;DHT22;6408;59.388;17.798;2024-01-11T06:40:58;2.00;99.90
12688;DHT22;6408;59.388;17.798;2024-01-11T06:43:27;2.00;99.90
12688;DHT22;6408;59.388;17.798;2024-01-11T06:45:56;2.10;99.90
12688;DHT22;6408;59.388;17.798;2024-01-11T06:48:23;2.10;99.90
12688;DHT22;6408;59.388;17.798;2024-01-11T06:50:50;2.00;99.90
12688;DHT22;6408;59.388;17.798;2024-01-11T06:53:18;2.10;99.90
12688;DHT22;6408;59.388;17.798;2024-01-11T06:55:45;2.10;99.90
12688;DHT22;6408;59.388;17.798;2024-01-11T06:58:16;2.10;99.90
12688;DHT22;6408;59.388;17.798;2024-01-11T07:00:44;2.00;99.90
12688;DHT22;6408;59.388;17.798;2024-01-11T07:03:13;2.00;99.90
12688;DHT22;6408;59.388;17.798;2024-01-11T07:05:40;1.90;99.90
12688;DHT22;6408;59.388;17.798;2024-01-11T07:08:08;2.00;99.90
12688;DHT22;6408;59.388;17.798;2024-01-11T07:10:35;1.90;99.90
12688;DHT22;6408;59.388;17.798;2024-01-11T07:13:03;1.90;99.90
12688;DHT22;6408;59.388;17.798;2024-01-11T07:15:32;2.00;99.90
12688;DHT22;6408;59.388;17.798;2024-01-11T07:17:59;2.00;99.90
12688;DHT22;6408;59.388;17.798;2024-01-11T07:20:30;2.00;99.90
12688;DHT22;6408;59.388;17.798;2024-01-11T07:23:00;1.90;99.90
12688;DHT22;6408;59.388;17.798;2024-01-11T07:25:27;1.90;99.90
12688;DHT22;6408;59.388;17.798;2024-01-11T07:27:54;1.80;99.90
12688;DHT22;6408;59.388;17.798;2024-01-11T07:30:22;1.90;99.90
12688;DHT22;6408;59.388;17.798;2024-01-11T07:32:49;1.90;99.90
12688;DHT22;6408;59.388;17.798;2024-01-11T07:35:17;1.90;99.90
12688;DHT22;6408;59.388;17.798;2024-01-11T07:37:45;2.00;99.90
12688;DHT22;6408;59.388;17.798;2024-01-11T07:40:16;2.00;99.90
12688;DHT22;6408;59.388;17.798;2024-01-11T07:42:43;1.90;99.90
12688;DHT22;6408;59.388;17.798;2024-01-11T07:45:12;1.90;99.90
12688;DHT22;6408;59.388;17.798;2024-01-11T07:47:40;1.80;99.90
12688;DHT22;6408;59.388;17.798;2024-01-11T07:50:09;1.90;99.90
12688;DHT22;6408;59.388;17.798;2024-01-11T07:52:40;1.90;99.90
12688;DHT22;6408;59.388;17.798;2024-01-11T07:55:10;1.80;99.90
12688;DHT22;6408;59.388;17.798;2024-01-11T07:57:40;1.80;99.90
12688;DHT22;6408;59.388;17.798;2024-01-11T08:00:08;1.80;99.90
12688;DHT22;6408;59.388;17.798;2024-01-11T08:02:39;1.90;99.90
12688;DHT22;6408;59.388;17.798;2024-01-11T08:05:08;1.80;99.90
12688;DHT22;6408;59.388;17.798;2024-01-11T08:07:36;1.90;99.90
12688;DHT22;6408;59.388;17.798;2024-01-11T08:10:05;1.90;99.90
12688;DHT22;6408;59.388;17.798;2024-01-11T08:12:36;1.90;99.90
12688;DHT22;6408;59.388;17.798;2024-01-11T08:15:05;1.90;99.90
12688;DHT22;6408;59.388;17.798;2024-01-11T08:17:35;2.00;99.90
12688;DHT22;6408;59.388;17.798;2024-01-11T08:20:07;2.00;99.90
12688;DHT22;6408;59.388;17.798;2024-01-11T08:22:39;2.00;99.90
12688;DHT22;6408;59.388;17.798;2024-01-11T08:25:06;2.10;99.90
12688;DHT22;6408;59.388;17.798;2024-01-11T08:27:36;2.00;99.90
12688;DHT22;6408;59.388;17.798;2024-01-11T08:30:04;2.00;99.90
12688;DHT22;6408;59.388;17.798;2024-01-11T08:32:32;2.10;99.90
12688;DHT22;6408;59.388;17.798;2024-01-11T08:35:05;2.10;99.90
12688;DHT22;6408;59.388;17.798;2024-01-11T08:37:32;2.10;99.90
12688;DHT22;6408;59.388;17.798;2024-01-11T08:40:00;2.10;99.90
12688;DHT22;6408;59.388;17.798;2024-01-11T08:42:30;2.20;99.90
12688;DHT22;6408;59.388;17.798;2024-01-11T08:44:59;2.20;99.90
12688;DHT22;6408;59.388;17.798;2024-01-11T08:47:32;2.20;99.90
12688;DHT22;6408;59.388;17.798;2024-01-11T08:50:00;2.30;99.90
12688;DHT22;6408;59.388;17.798;2024-01-11T08:52:31;2.20;99.90
12688;DHT22;6408;59.388;17.798;2024-01-11T08:54:59;2.30;99.90
12688;DHT22;6408;59.388;17.798;2024-01-11T08:57:26;2.30;99.90
12688;DHT22;6408;59.388;17.798;2024-01-11T08:59:58;2.30;99.90
12688;DHT22;6408;59.388;17.798;2024-01-11T09:02:27;2.40;99.90
12688;DHT22;6408;59.388;17.798;2024-01-11T09:04:55;2.40;99.90
12688;DHT22;6408;59.388;17.798;2024-01-11T09:07:26;2.50;99.90
12688;DHT22;6408;59.388;17.798;2024-01-11T09:10:00;2.50;99.90
12688;DHT22;6408;59.388;17.798;2024-01-11T09:12:28;2.60;99.90
12688;DHT22;6408;59.388;17.798;2024-01-11T09:14:58;2.80;99.90
12688;DHT22;6408;59.388;17.798;2024-01-11T09:17:26;2.90;99.90
12688;DHT22;6408;59.388;17.798;2024-01-11T09:19:53;2.80;99.90
12688;DHT22;6408;59.388;17.798;2024-01-11T09:22:22;2.80;99.90
12688;DHT22;6408;59.388;17.798;2024-01-11T09:24:49;2.90;99.90
12688;DHT22;6408;59.388;17.798;2024-01-11T09:27:19;2.90;99.90
12688;DHT22;6408;59.388;17.798;2024-01-11T09:29:47;2.80;99.90
12688;DHT22;6408;59.388;17.798;2024-01-11T09:32:16;2.80;99.90
12688;DHT22;6408;59.388;17.798;2024-01-11T09:34:46;2.80;99.90
12688;DHT22;6408;59.388;17.798;2024-01-11T09:37:13;2.70;99.90
12688;DHT22;6408;59.388;17.798;2024-01-11T09:39:49;2.60;99.90
12688;DHT22;6408;59.388;17.798;2024-01-11T09:42:20;2.50;99.90
12688;DHT22;6408;59.388;17.798;2024-01-11T09:44:54;2.50;99.90
12688;DHT22;6408;59.388;17.798;2024-01-11T09:47:24;2.50;99.90
12688;DHT22;6408;59.388;17.798;2024-01-11T09:49:53;2.40;99.90
12688;DHT22;6408;59.388;17.798;2024-01-11T09:52:27;2.40;99.90
12688;DHT22;6408;59.388;17.798;2024-01-11T09:54:57;2.50;99.90
12688;DHT22;6408;59.388;17.798;2024-01-11T09:57:29;2.60;99.90
12688;DHT22;6408;59.388;17.798;2024-01-11T10:00:03;2.60;99.90
12688;DHT22;6408;59.388;17.798;2024-01-11T10:06:33;2.50;99.90
12688;DHT22;6408;59.388;17.798;2024-01-11T10:09:14;2.40;99.90
12688;DHT22;6408;59.388;17.798;2024-01-11T10:11:42;2.40;99.90
12688;DHT22;6408;59.388;17.798;2024-01-11T10:14:12;2.50;99.90
12688;DHT22;6408;59.388;17.798;2024-01-11T10:16:41;2.50;99.90
12688;DHT22;6408;59.388;17.798;2024-01-11T10:19:10;2.50;99.90
12688;DHT22;6408;59.388;17.798;2024-01-11T10:21:41;2.50;99.90
12688;DHT22;6408;59.388;17.798;2024-01-11T10:24:08;2.50;99.90
12688;DHT22;6408;59.388;17.798;2024-01-11T10:29:35;2.60;99.90
12688;DHT22;6408;59.388;17.798;2024-01-11T10:32:04;2.50;99.90
12688;DHT22;6408;59.388;17.798;2024-01-11T10:34:33;2.50;99.90
12688;DHT22;6408;59.388;17.798;2024-01-11T10:37:07;2.50;99.90
12688;DHT22;6408;59.388;17.798;2024-01-11T10:39:39;2.60;99.90
12688;DHT22;6408;59.388;17.798;2024-01-11T10:42:08;2.60;99.90
12688;DHT22;6408;59.388;17.798;2024-01-11T10:44:41;2.60;99.90
12688;DHT22;6408;59.388;17.798;2024-01-11T10:47:11;2.60;99.90
12688;DHT22;6408;59.388;17.798;2024-01-11T10:49:46;2.50;99.90
12688;DHT22;6408;59.388;17.798;2024-01-11T10:52:25;2.40;99.90
12688;DHT22;6408;59.388;17.798;2024-01-11T10:54:57;2.40;99.90
12688;DHT22;6408;59.388;17.798;2024-01-11T11:00:17;2.50;99.90
12688;DHT22;6408;59.388;17.798;2024-01-11T11:02:46;2.50;99.90
12688;DHT22;6408;59.388;17.798;2024-01-11T11:05:14;2.40;99.90
12688;DHT22;6408;59.388;17.798;2024-01-11T11:07:47;2.30;99.90
12688;DHT22;6408;59.388;17.798;2024-01-11T11:10:17;2.30;99.90
12688;DHT22;6408;59.388;17.798;2024-01-11T11:12:48;2.30;99.90
12688;DHT22;6408;59.388;17.798;2024-01-11T11:15:18;2.20;99.90
12688;DHT22;6408;59.388;17.798;2024-01-11T11:17:45;2.10;99.90
12688;DHT22;6408;59.388;17.798;2024-01-11T11:20:12;1.90;99.90
12688;DHT22;6408;59.388;17.798;2024-01-11T11:22:42;1.90;99.90
12688;DHT22;6408;59.388;17.798;2024-01-11T11:25:11;1.80;99.90
12688;DHT22;6408;59.388;17.798;2024-01-11T11:27:50;1.70;99.90
12688;DHT22;6408;59.388;17.798;2024-01-11T11:30:19;1.70;99.90
12688;DHT22;6408;59.388;17.798;2024-01-11T11:32:48;1.70;99.90
12688;DHT22;6408;59.388;17.798;2024-01-11T11:35:16;1.60;99.90
12688;DHT22;6408;59.388;17.798;2024-01-11T11:37:45;1.50;99.90
12688;DHT22;6408;59.388;17.798;2024-01-11T11:40:15;1.30;99.90
12688;DHT22;6408;59.388;17.798;2024-01-11T11:42:47;1.10;99.90
12688;DHT22;6408;59.388;17.798;2024-01-11T11:45:24;1.00;99.90
12688;DHT22;6408;59.388;17.798;2024-01-11T11:47:52;0.90;99.90
12688;DHT22;6408;59.388;17.798;2024-01-11T11:50:22;0.80;99.90
12688;DHT22;6408;59.388;17.798;2024-01-11T11:52:57;0.90;99.90
12688;DHT22;6408;59.388;17.798;2024-01-11T11:55:26;1.00;99.90
12688;DHT22;6408;59.388;17.798;2024-01-11T11:57:56;1.00;99.90
12688;DHT22;6408;59.388;17.798;2024-01-11T12:00:24;0.90;99.90
12688;DHT22;6408;59.388;17.798;2024-01-11T12:02:51;1.00;99.90
12688;DHT22;6408;59.388;17.798;2024-01-11T12:05:22;0.90;99.90
12688;DHT22;6408;59.388;17.798;2024-01-11T12:07:54;0.90;99.90
12688;DHT22;6408;59.388;17.798;2024-01-11T12:10:21;0.90;99.90
12688;DHT22;6408;59.388;17.798;2024-01-11T12:12:51;0.80;99.90
12688;DHT22;6408;59.388;17.798;2024-01-11T12:15:18;0.80;99.90
12688;DHT22;6408;59.388;17.798;2024-01-11T12:17:46;0.80;99.90
12688;DHT22;6408;59.388;17.798;2024-01-11T12:20:22;0.80;99.90
12688;DHT22;6408;59.388;17.798;2024-01-11T12:23:03;0.70;99.90
12688;DHT22;6408;59.388;17.798;2024-01-11T12:25:32;0.70;99.90
12688;DHT22;6408;59.388;17.798;2024-01-11T12:28:04;0.80;99.90
12688;DHT22;6408;59.388;17.798;2024-01-11T12:30:33;0.80;99.90
12688;DHT22;6408;59.388;17.798;2024-01-11T12:33:02;0.90;99.90
12688;DHT22;6408;59.388;17.798;2024-01-11T12:35:31;1.10;99.90
12688;DHT22;6408;59.388;17.798;2024-01-11T12:37:59;1.20;99.90
12688;DHT22;6408;59.388;17.798;2024-01-11T12:40:31;1.30;99.90
12688;DHT22;6408;59.388;17.798;2024-01-11T12:42:59;1.20;99.90
12688;DHT22;6408;59.388;17.798;2024-01-11T12:45:29;1.20;99.90
12688;DHT22;6408;59.388;17.798;2024-01-11T12:47:58;1.20;99.90
12688;DHT22;6408;59.388;17.798;2024-01-11T12:50:26;1.20;99.90
12688;DHT22;6408;59.388;17.798;2024-01-11T12:53:08;1.20;99.90
12688;DHT22;6408;59.388;17.798;2024-01-11T12:55:39;1.10;99.90
12688;DHT22;6408;59.388;17.798;2024-01-11T12:58:11;1.20;99.90
12688;DHT22;6408;59.388;17.798;2024-01-11T13:00:55;1.10;99.90
12688;DHT22;6408;59.388;17.798;2024-01-11T13:03:26;1.10;99.90
12688;DHT22;6408;59.388;17.798;2024-01-11T13:05:56;1.10;99.90
12688;DHT22;6408;59.388;17.798;2024-01-11T13:08:24;1.00;99.90
12688;DHT22;6408;59.388;17.798;2024-01-11T13:10:54;0.90;99.90
12688;DHT22;6408;59.388;17.798;2024-01-11T13:13:21;0.90;99.90
12688;DHT22;6408;59.388;17.798;2024-01-11T13:15:50;0.90;99.90
12688;DHT22;6408;59.388;17.798;2024-01-11T13:18:20;0.80;99.90
12688;DHT22;6408;59.388;17.798;2024-01-11T13:20:47;0.80;99.90
12688;DHT22;6408;59.388;17.798;2024-01-11T13:23:15;0.70;99.90
12688;DHT22;6408;59.388;17.798;2024-01-11T13:25:46;0.70;99.90
12688;DHT22;6408;59.388;17.798;2024-01-11T13:28:13;0.70;99.90
12688;DHT22;6408;59.388;17.798;2024-01-11T13:30:42;0.60;99.90
12688;DHT22;6408;59.388;17.798;2024-01-11T13:33:11;0.60;99.90
12688;DHT22;6408;59.388;17.798;2024-01-11T13:35:41;0.60;99.90
12688;DHT22;6408;59.388;17.798;2024-01-11T13:38:09;0.60;99.90
12688;DHT22;6408;59.388;17.798;2024-01-11T13:40:36;0.50;99.90
12688;DHT22;6408;59.388;17.798;2024-01-11T13:43:05;0.40;99.90
12688;DHT22;6408;59.388;17.798;2024-01-11T13:45:32;0.40;99.90
12688;DHT22;6408;59.388;17.798;2024-01-11T13:48:02;0.30;99.90
12688;DHT22;6408;59.388;17.798;2024-01-11T13:50:33;0.30;99.90
12688;DHT22;6408;59.388;17.798;2024-01-11T13:53:05;0.30;99.90
12688;DHT22;6408;59.388;17.798;2024-01-11T13:55:32;0.30;99.90
12688;DHT22;6408;59.388;17.798;2024-01-11T13:58:05;0.30;99.90
12688;DHT22;6408;59.388;17.798;2024-01-11T14:00:33;0.30;99.90
12688;DHT22;6408;59.388;17.798;2024-01-11T14:03:00;0.30;99.90
12688;DHT22;6408;59.388;17.798;2024-01-11T14:05:29;0.30;99.90
12688;DHT22;6408;59.388;17.798;2024-01-11T14:07:57;0.20;99.90
12688;DHT22;6408;59.388;17.798;2024-01-11T14:10:29;0.20;99.90
12688;DHT22;6408;59.388;17.798;2024-01-11T14:12:57;0.10;99.90
12688;DHT22;6408;59.388;17.798;2024-01-11T14:15:25;0.10;99.90
12688;DHT22;6408;59.388;17.798;2024-01-11T14:17:52;0.00;99.90
12688;DHT22;6408;59.388;17.798;2024-01-11T14:20:20;0.10;99.90
12688;DHT22;6408;59.388;17.798;2024-01-11T14:22:50;0.10;99.90
12688;DHT22;6408;59.388;17.798;2024-01-11T14:25:30;0.10;99.90
12688;DHT22;6408;59.388;17.798;2024-01-11T14:27:58;0.10;99.90
12688;DHT22;6408;59.388;17.798;2024-01-11T14:30:27;0.10;99.90
12688;DHT22;6408;59.388;17.798;2024-01-11T14:32:55;0.10;99.90
12688;DHT22;6408;59.388;17.798;2024-01-11T14:35:25;0.10;99.90
12688;DHT22;6408;59.388;17.798;2024-01-11T14:37:52;0.00;99.90
12688;DHT22;6408;59.388;17.798;2024-01-11T14:40:21;0.00;99.90
12688;DHT22;6408;59.388;17.798;2024-01-11T14:42:51;0.00;99.90
12688;DHT22;6408;59.388;17.798;2024-01-11T14:45:18;0.00;99.90
12688;DHT22;6408;59.388;17.798;2024-01-11T14:47:46;0.00;99.90
12688;DHT22;6408;59.388;17.798;2024-01-11T14:50:13;0.00;99.90
12688;DHT22;6408;59.388;17.798;2024-01-11T14:52:40;0.00;99.90
12688;DHT22;6408;59.388;17.798;2024-01-11T14:55:09;0.00;99.90
12688;DHT22;6408;59.388;17.798;2024-01-11T14:57:38;0.00;99.90
12688;DHT22;6408;59.388;17.798;2024-01-11T15:00:11;0.00;99.90
12688;DHT22;6408;59.388;17.798;2024-01-11T15:02:55;0.00;99.90
12688;DHT22;6408;59.388;17.798;2024-01-11T15:05:22;0.00;99.90
12688;DHT22;6408;59.388;17.798;2024-01-11T15:07:53;0.00;99.90
12688;DHT22;6408;59.388;17.798;2024-01-11T15:10:22;0.00;99.90
12688;DHT22;6408;59.388;17.798;2024-01-11T15:12:52;0.00;99.90
12688;DHT22;6408;59.388;17.798;2024-01-11T15:15:36;0.00;99.90
12688;DHT22;6408;59.388;17.798;2024-01-11T15:18:05;0.00;99.90
12688;DHT22;6408;59.388;17.798;2024-01-11T15:20:42;-0.10;99.90
12688;DHT22;6408;59.388;17.798;2024-01-11T15:23:10;-0.10;99.90
12688;DHT22;6408;59.388;17.798;2024-01-11T15:25:38;-0.10;99.90
12688;DHT22;6408;59.388;17.798;2024-01-11T15:28:06;-0.10;99.90
12688;DHT22;6408;59.388;17.798;2024-01-11T15:30:53;-0.10;99.90
12688;DHT22;6408;59.388;17.798;2024-01-11T15:33:25;-0.20;99.90
12688;DHT22;6408;59.388;17.798;2024-01-11T15:35:52;-0.10;99.90
12688;DHT22;6408;59.388;17.798;2024-01-11T15:38:21;-0.20;99.90
12688;DHT22;6408;59.388;17.798;2024-01-11T15:40:48;-0.20;99.90
12688;DHT22;6408;59.388;17.798;2024-01-11T15:43:18;-0.20;99.90
12688;DHT22;6408;59.388;17.798;2024-01-11T15:45:48;-0.20;99.90
12688;DHT22;6408;59.388;17.798;2024-01-11T15:48:18;-0.10;99.90
12688;DHT22;6408;59.388;17.798;2024-01-11T15:50:46;-0.10;99.90
12688;DHT22;6408;59.388;17.798;2024-01-11T15:53:14;-0.20;99.90
12688;DHT22;6408;59.388;17.798;2024-01-11T15:55:42;-0.10;99.90
12688;DHT22;6408;59.388;17.798;2024-01-11T15:58:09;-0.10;99.90
12688;DHT22;6408;59.388;17.798;2024-01-11T16:00:38;-0.10;99.90
12688;DHT22;6408;59.388;17.798;2024-01-11T16:03:11;-0.20;99.90
12688;DHT22;6408;59.388;17.798;2024-01-11T16:05:39;-0.10;99.90
12688;DHT22;6408;59.388;17.798;2024-01-11T16:08:08;-0.10;99.90
12688;DHT22;6408;59.388;17.798;2024-01-11T16:10:39;-0.20;99.90
12688;DHT22;6408;59.388;17.798;2024-01-11T16:13:06;-0.20;99.90